createdAt,value
2019-05-05T00:02:29.203Z,0.80
2019-05-05T00:05:18.599Z,0.87
2019-05-05T00:07:49.315Z,1.03
2019-05-05T00:10:29.188Z,0.80
2019-05-05T00:13:15.756Z,0.80
2019-05-05T00:16:04.611Z,0.77
2019-05-05T00:18:35.603Z,0.60
2019-05-05T00:21:06.227Z,0.70
2019-05-05T00:23:36.623Z,1.00
2019-05-05T00:26:07.160Z,0.80
2019-05-05T00:28:37.709Z,0.73
2019-05-05T00:31:08.283Z,0.90
2019-05-05T00:33:38.913Z,0.90
2019-05-05T00:36:09.476Z,0.70
2019-05-05T00:38:44.116Z,0.80
2019-05-05T00:41:14.941Z,0.70
2019-05-05T00:43:45.660Z,0.70
2019-05-05T00:46:21.984Z,0.90
2019-05-05T00:48:55.048Z,0.83
2019-05-05T00:51:24.617Z,0.90
2019-05-05T00:53:57.899Z,0.80
2019-05-05T00:56:31.631Z,0.60
2019-05-05T00:59:04.982Z,0.73
2019-05-05T01:02:09.533Z,0.90
2019-05-05T01:04:55.113Z,0.60
2019-05-05T01:07:25.960Z,1.00
2019-05-05T01:09:56.520Z,0.60
2019-05-05T01:12:27.685Z,0.70
2019-05-05T01:15:00.004Z,0.70
2019-05-05T01:17:30.467Z,0.80
2019-05-05T01:20:06.162Z,0.70
2019-05-05T01:22:34.201Z,0.70
2019-05-05T01:25:05.456Z,0.80
2019-05-05T01:27:36.252Z,0.97
2019-05-05T01:30:11.786Z,0.80
2019-05-05T01:32:44.756Z,0.73
2019-05-05T01:35:15.611Z,0.80
2019-05-05T01:37:54.821Z,0.70
2019-05-05T01:40:47.046Z,1.10
2019-05-05T01:43:20.097Z,0.90
2019-05-05T01:45:50.763Z,0.90
2019-05-05T01:48:21.380Z,0.70
2019-05-05T01:50:54.378Z,0.87
2019-05-05T01:53:25.167Z,1.20
2019-05-05T01:55:55.899Z,0.87
2019-05-05T01:58:26.890Z,1.10
2019-05-05T02:00:58.407Z,1.23
2019-05-05T02:03:29.236Z,1.20
2019-05-05T02:06:00.086Z,1.50
2019-05-05T02:08:30.773Z,1.13
2019-05-05T02:11:01.698Z,1.70
2019-05-05T02:13:34.660Z,1.90
2019-05-05T02:16:05.271Z,1.47
2019-05-05T02:18:36.115Z,1.80
2019-05-05T02:21:08.331Z,1.60
2019-05-05T02:23:39.220Z,1.80
2019-05-05T02:26:11.651Z,2.03
2019-05-05T02:29:01.875Z,1.87
2019-05-05T02:31:49.899Z,1.60
2019-05-05T02:34:20.492Z,1.47
2019-05-05T02:36:51.050Z,1.13
2019-05-05T02:39:23.375Z,1.20
2019-05-05T02:41:55.386Z,1.57
2019-05-05T02:44:27.472Z,1.33
2019-05-05T02:47:25.708Z,1.07
2019-05-05T02:50:05.362Z,1.40
2019-05-05T02:52:38.459Z,1.00
2019-05-05T02:55:09.831Z,1.10
2019-05-05T02:57:41.208Z,1.40
2019-05-05T03:00:29.335Z,1.30
2019-05-05T03:03:00.727Z,1.30
2019-05-05T03:05:31.585Z,1.57
2019-05-05T03:08:04.274Z,1.33
2019-05-05T03:10:35.335Z,1.47
2019-05-05T03:13:06.283Z,1.30
2019-05-05T03:16:10.375Z,1.17
2019-05-05T03:18:40.918Z,1.40
2019-05-05T03:21:13.884Z,1.20
2019-05-05T03:23:46.059Z,1.30
2019-05-05T03:26:17.323Z,1.40
2019-05-05T03:28:55.797Z,1.37
2019-05-05T03:31:34.906Z,1.60
2019-05-05T03:34:07.185Z,1.00
2019-05-05T03:36:37.915Z,1.27
2019-05-05T03:39:15.151Z,1.20
2019-05-05T03:42:05.512Z,1.30
2019-05-05T03:44:44.045Z,1.17
2019-05-05T03:47:17.063Z,1.30
2019-05-05T03:49:53.554Z,1.27
2019-05-05T03:52:24.545Z,1.50
2019-05-05T03:54:58.208Z,0.93
2019-05-05T03:57:29.051Z,1.50
2019-05-05T04:00:04.340Z,1.47
2019-05-05T04:02:44.556Z,1.27
2019-05-05T04:05:36.804Z,2.58
2019-05-05T04:08:07.911Z,1.67
2019-05-05T04:10:41.635Z,1.40
2019-05-05T04:13:16.851Z,1.63
2019-05-05T04:16:06.763Z,1.50
2019-05-05T04:18:44.275Z,1.50
2019-05-05T04:21:14.824Z,2.10
2019-05-05T04:23:48.460Z,1.60
2019-05-05T04:26:18.992Z,1.80
2019-05-05T04:28:49.717Z,1.80
2019-05-05T04:31:21.212Z,1.90
2019-05-05T04:33:53.703Z,1.50
2019-05-05T04:36:25.377Z,2.27
2019-05-05T04:38:58.408Z,1.77
2019-05-05T04:41:28.861Z,1.40
2019-05-05T04:44:03.895Z,1.70
2019-05-05T04:46:33.883Z,1.80
2019-05-05T04:49:20.503Z,1.80
2019-05-05T04:51:53.893Z,1.97
2019-05-05T04:54:29.367Z,1.60
2019-05-05T04:57:01.807Z,1.50
2019-05-05T04:59:33.986Z,1.50
2019-05-05T05:02:10.273Z,1.63
2019-05-05T05:04:49.022Z,1.60
2019-05-05T05:07:19.962Z,1.80
2019-05-05T05:09:56.619Z,1.53
2019-05-05T05:12:27.130Z,1.10
2019-05-05T05:14:59.207Z,1.40
2019-05-05T05:17:37.115Z,1.10
2019-05-05T05:20:08.512Z,1.10
2019-05-05T05:22:39.171Z,1.20
2019-05-05T05:25:15.087Z,1.37
2019-05-05T05:27:45.603Z,1.27
2019-05-05T05:30:16.577Z,1.30
2019-05-05T05:32:47.199Z,1.20
2019-05-05T05:35:18.632Z,1.37
2019-05-05T05:37:49.196Z,0.97
2019-05-05T05:40:27.771Z,1.00
2019-05-05T05:42:59.293Z,1.20
2019-05-05T05:45:43.851Z,1.20
2019-05-05T05:48:20.959Z,0.90
2019-05-05T05:50:56.604Z,1.23
2019-05-05T05:53:28.863Z,1.00
2019-05-05T05:56:04.173Z,1.10
2019-05-05T05:58:34.077Z,1.00
2019-05-05T06:01:04.912Z,1.00
2019-05-05T06:03:35.277Z,0.97
2019-05-05T06:06:05.697Z,0.90
2019-05-05T06:08:36.267Z,0.60
2019-05-05T06:11:06.755Z,0.80
2019-05-05T06:13:37.351Z,0.67
2019-05-05T06:16:07.879Z,0.60
2019-05-05T06:18:38.491Z,0.70
2019-05-05T06:21:08.884Z,0.73
2019-05-05T06:23:39.471Z,0.60
2019-05-05T06:26:09.999Z,0.67
2019-05-05T06:28:40.780Z,0.60
2019-05-05T06:31:11.288Z,0.70
2019-05-05T06:33:43.807Z,0.70
2019-05-05T06:36:14.967Z,0.60
2019-05-05T06:38:45.660Z,0.73
2019-05-05T06:41:40.970Z,0.60
2019-05-05T06:44:25.397Z,0.67
2019-05-05T06:47:04.921Z,0.43
2019-05-05T06:49:37.164Z,0.60
2019-05-05T06:52:08.933Z,0.50
2019-05-05T06:54:39.439Z,0.47
2019-05-05T06:57:10.059Z,0.57
2019-05-05T06:59:40.715Z,0.40
2019-05-05T07:02:11.196Z,0.40
2019-05-05T07:04:44.306Z,0.50
2019-05-05T07:07:14.772Z,0.40
2019-05-05T07:09:48.975Z,0.47
2019-05-05T07:12:19.616Z,0.40
2019-05-05T07:14:50.258Z,0.30
2019-05-05T07:17:20.687Z,0.90
2019-05-05T07:19:51.606Z,1.63
2019-05-05T07:22:25.331Z,1.03
2019-05-05T07:24:56.227Z,1.17
2019-05-05T07:27:26.860Z,0.70
2019-05-05T07:29:57.448Z,1.50
2019-05-05T07:32:29.414Z,0.60
2019-05-05T07:35:20.979Z,3.10
2019-05-05T07:37:53.751Z,0.90
2019-05-05T07:40:24.322Z,0.90
2019-05-05T07:42:54.935Z,0.60
2019-05-05T07:45:26.174Z,0.47
2019-05-05T07:47:59.599Z,0.40
2019-05-05T07:50:32.618Z,0.40
2019-05-05T07:53:12.359Z,0.40
2019-05-05T07:55:35.979Z,0.70
2019-05-05T07:58:07.591Z,0.40
2019-05-05T08:00:38.123Z,0.30
2019-05-05T08:03:08.580Z,0.40
2019-05-05T08:05:39.317Z,0.47
2019-05-05T08:08:09.976Z,0.93
2019-05-05T08:10:43.566Z,0.50
2019-05-05T08:13:14.132Z,3.77
2019-05-05T08:15:56.657Z,0.70
2019-05-05T08:18:27.666Z,0.47
2019-05-05T08:21:01.295Z,0.40
2019-05-05T08:23:40.601Z,0.40
2019-05-05T08:26:43.940Z,0.40
2019-05-05T08:29:36.405Z,0.40
2019-05-05T08:32:19.692Z,0.50
2019-05-05T08:34:59.720Z,0.50
2019-05-05T08:37:23.686Z,0.40
2019-05-05T08:39:54.512Z,0.50
2019-05-05T08:42:28.771Z,0.60
2019-05-05T08:44:59.481Z,0.40
2019-05-05T08:47:30.415Z,0.50
2019-05-05T08:50:01.337Z,0.50
2019-05-05T08:52:34.162Z,0.30
2019-05-05T08:55:05.212Z,0.30
2019-05-05T08:57:36.137Z,0.30
2019-05-05T09:00:08.334Z,0.37
2019-05-05T09:02:39.058Z,0.40
2019-05-05T09:05:09.852Z,0.20
2019-05-05T09:07:40.719Z,0.30
2019-05-05T09:10:14.231Z,0.37
2019-05-05T09:12:44.899Z,0.20
2019-05-05T09:15:18.897Z,0.30
2019-05-05T09:17:51.232Z,0.50
2019-05-05T09:20:24.126Z,0.30
2019-05-05T09:22:57.254Z,0.30
2019-05-05T09:25:44.637Z,0.30
2019-05-05T09:28:26.792Z,0.30
2019-05-05T09:30:59.125Z,0.30
2019-05-05T09:33:30.362Z,0.20
2019-05-05T09:36:01.054Z,0.23
2019-05-05T09:38:35.145Z,0.37
2019-05-05T09:41:06.585Z,0.30
2019-05-05T09:43:40.958Z,0.40
2019-05-05T09:46:14.222Z,0.30
2019-05-05T09:48:48.334Z,0.30
2019-05-05T09:51:21.658Z,0.30
2019-05-05T09:53:54.223Z,0.30
2019-05-05T09:56:27.222Z,0.30
2019-05-05T09:58:58.175Z,0.30
2019-05-05T10:01:29.336Z,0.20
2019-05-05T10:04:10.492Z,0.30
2019-05-05T10:06:47.110Z,0.20
2019-05-05T10:09:14.740Z,0.20
2019-05-05T10:11:45.339Z,0.20
2019-05-05T10:14:16.501Z,0.30
2019-05-05T10:16:47.681Z,0.20
2019-05-05T10:19:18.770Z,0.20
2019-05-05T10:21:50.052Z,0.17
2019-05-05T10:24:30.744Z,0.20
2019-05-05T10:27:04.942Z,0.20
2019-05-05T10:29:39.199Z,0.20
2019-05-05T10:32:11.052Z,0.20
2019-05-05T10:34:44.013Z,0.20
2019-05-05T10:37:16.693Z,0.20
2019-05-05T10:39:56.948Z,0.20
2019-05-05T10:42:46.841Z,0.10
2019-05-05T10:45:24.439Z,0.20
2019-05-05T10:47:56.144Z,0.20
2019-05-05T10:50:28.867Z,0.13
2019-05-05T10:52:59.669Z,0.20
2019-05-05T10:55:34.621Z,0.20
2019-05-05T10:58:05.639Z,0.10
2019-05-05T11:00:47.647Z,0.10
2019-05-05T11:03:18.360Z,0.20
2019-05-05T11:05:53.930Z,0.20
2019-05-05T11:08:34.777Z,0.20
2019-05-05T11:11:05.787Z,0.10
2019-05-05T11:13:38.329Z,0.20
2019-05-05T11:16:20.265Z,0.20
2019-05-05T11:18:56.544Z,0.10
2019-05-05T11:21:30.471Z,0.17
2019-05-05T11:24:02.283Z,0.10
2019-05-05T11:26:36.193Z,0.20
2019-05-05T11:29:07.390Z,0.20
2019-05-05T11:31:38.487Z,0.20
2019-05-05T11:34:18.870Z,0.20
2019-05-05T11:36:57.247Z,0.30
2019-05-05T11:39:28.324Z,0.30
2019-05-05T11:41:59.703Z,0.30
2019-05-05T11:44:31.214Z,0.20
2019-05-05T11:47:03.760Z,0.20
2019-05-05T11:49:37.888Z,0.30
2019-05-05T11:52:08.841Z,0.40
2019-05-05T11:54:39.843Z,0.33
2019-05-05T11:57:10.964Z,0.37
2019-05-05T11:59:43.671Z,0.50
2019-05-05T12:02:14.115Z,0.50
2019-05-05T12:04:44.839Z,0.40
2019-05-05T12:07:15.661Z,0.60
2019-05-05T12:09:51.035Z,0.53
2019-05-05T12:12:21.720Z,0.83
2019-05-05T12:14:53.909Z,0.83
2019-05-05T12:17:37.223Z,1.00
2019-05-05T12:20:08.523Z,0.70
2019-05-05T12:22:39.218Z,0.77
2019-05-05T12:25:28.917Z,0.90
2019-05-05T12:28:04.404Z,0.80
2019-05-05T12:30:34.960Z,0.70
2019-05-05T12:33:05.751Z,1.20
2019-05-05T12:35:36.363Z,1.00
2019-05-05T12:38:06.859Z,1.17
2019-05-05T12:40:37.303Z,1.03
2019-05-05T12:43:07.860Z,1.00
2019-05-05T12:45:40.116Z,1.50
2019-05-05T12:48:24.110Z,0.60
2019-05-05T12:50:55.919Z,0.83
2019-05-05T12:53:26.947Z,0.70
2019-05-05T12:55:57.781Z,0.60
2019-05-05T12:58:28.586Z,0.60
2019-05-05T13:01:15.882Z,0.40
2019-05-05T13:03:46.994Z,0.40
2019-05-05T13:06:17.804Z,0.67
2019-05-05T13:08:48.673Z,0.50
2019-05-05T13:11:19.947Z,0.83
2019-05-05T13:13:50.535Z,0.77
2019-05-05T13:16:24.490Z,1.03
2019-05-05T13:18:53.866Z,1.30
2019-05-05T13:21:50.029Z,1.60
2019-05-05T13:24:39.316Z,1.90
2019-05-05T13:27:24.864Z,1.87
2019-05-05T13:29:55.793Z,2.03
2019-05-05T13:32:26.553Z,2.73
2019-05-05T13:34:58.683Z,1.97
2019-05-05T13:37:29.393Z,2.17
2019-05-05T13:40:00.253Z,2.13
2019-05-05T13:42:30.831Z,2.30
2019-05-05T13:45:07.072Z,2.50
2019-05-05T13:47:37.932Z,2.43
2019-05-05T13:50:23.439Z,2.00
2019-05-05T13:52:55.025Z,2.03
2019-05-05T13:55:25.965Z,1.97
2019-05-05T13:57:56.552Z,1.70
2019-05-05T14:00:27.603Z,1.90
2019-05-05T14:02:58.073Z,1.70
2019-05-05T14:05:29.035Z,1.70
2019-05-05T14:07:59.814Z,1.40
2019-05-05T14:10:30.423Z,1.40
2019-05-05T14:13:01.067Z,1.60
2019-05-05T14:15:34.172Z,1.40
2019-05-05T14:18:04.940Z,1.70
2019-05-05T14:20:35.852Z,1.73
2019-05-05T14:23:06.669Z,1.40
2019-05-05T14:25:37.432Z,1.70
2019-05-05T14:28:07.983Z,1.40
2019-05-05T14:30:56.021Z,2.00
2019-05-05T14:33:29.545Z,2.00
2019-05-05T14:36:07.240Z,1.60
2019-05-05T14:38:49.453Z,1.90
2019-05-05T14:41:19.620Z,1.60
2019-05-05T14:43:50.381Z,1.90
2019-05-05T14:46:23.379Z,1.73
2019-05-05T14:48:54.069Z,1.83
2019-05-05T14:51:24.990Z,1.60
2019-05-05T14:53:55.512Z,1.47
2019-05-05T14:56:36.055Z,1.77
2019-05-05T14:58:58.528Z,1.80
2019-05-05T15:01:29.123Z,1.77
2019-05-05T15:03:59.644Z,1.83
2019-05-05T15:06:47.649Z,2.10
2019-05-05T15:09:46.583Z,1.90
2019-05-05T15:12:24.265Z,1.97
2019-05-05T15:14:54.872Z,2.13
2019-05-05T15:17:29.572Z,2.20
2019-05-05T15:20:00.395Z,1.90
2019-05-05T15:22:31.739Z,1.90
2019-05-05T15:25:04.153Z,1.83
2019-05-05T15:27:38.902Z,1.73
2019-05-05T15:30:10.039Z,2.23
2019-05-05T15:32:41.337Z,1.63
2019-05-05T15:35:14.146Z,2.17
2019-05-05T15:37:44.839Z,2.03
2019-05-05T15:40:15.820Z,2.10
2019-05-05T15:42:47.627Z,1.90
2019-05-05T15:45:18.255Z,2.10
2019-05-05T15:47:49.044Z,1.90
2019-05-05T15:50:19.777Z,2.20
2019-05-05T15:52:50.688Z,2.00
2019-05-05T15:55:21.231Z,1.97
2019-05-05T15:57:51.996Z,1.97
2019-05-05T16:00:22.757Z,2.20
2019-05-05T16:02:54.839Z,2.30
2019-05-05T16:05:25.467Z,2.30
2019-05-05T16:07:56.475Z,1.77
2019-05-05T16:10:27.075Z,2.30
2019-05-05T16:12:57.693Z,2.20
2019-05-05T16:15:50.048Z,2.03
2019-05-05T16:19:01.933Z,2.10
2019-05-05T16:21:38.749Z,2.37
2019-05-05T16:24:36.479Z,1.90
2019-05-05T16:27:18.618Z,2.50
2019-05-05T16:29:38.520Z,2.53
2019-05-05T16:32:19.593Z,2.10
2019-05-05T16:34:41.799Z,2.20
2019-05-05T16:37:14.322Z,2.30
2019-05-05T16:39:45.568Z,2.20
2019-05-05T16:42:16.304Z,2.40
2019-05-05T16:44:47.379Z,2.63
2019-05-05T16:47:18.840Z,2.37
2019-05-05T16:49:49.363Z,2.83
2019-05-05T16:52:26.135Z,2.70
2019-05-05T16:55:04.659Z,2.33
2019-05-05T16:57:36.749Z,2.27
2019-05-05T17:00:08.806Z,2.43
2019-05-05T17:02:44.086Z,3.07
2019-05-05T17:05:16.481Z,2.53
2019-05-05T17:07:47.920Z,2.67
2019-05-05T17:10:18.759Z,2.40
2019-05-05T17:12:49.392Z,2.43
2019-05-05T17:15:40.082Z,2.40
2019-05-05T17:18:35.203Z,2.43
2019-05-05T17:21:07.065Z,2.50
2019-05-05T17:23:37.687Z,3.03
2019-05-05T17:26:08.659Z,3.00
2019-05-05T17:28:41.160Z,2.77
2019-05-05T17:31:11.730Z,2.57
2019-05-05T17:33:45.621Z,2.57
2019-05-05T17:36:24.227Z,2.90
2019-05-05T17:38:54.852Z,2.33
2019-05-05T17:41:44.537Z,3.00
2019-05-05T17:44:33.660Z,2.93
2019-05-05T17:47:34.281Z,2.60
2019-05-05T17:50:24.616Z,2.27
2019-05-05T17:53:15.770Z,2.30
2019-05-05T17:55:46.388Z,2.40
2019-05-05T17:58:16.758Z,2.30
2019-05-05T18:00:57.582Z,2.00
2019-05-05T18:03:28.169Z,2.10
2019-05-05T18:06:23.983Z,2.20
2019-05-05T18:09:02.448Z,2.33
2019-05-05T18:11:44.201Z,2.17
2019-05-05T18:14:19.877Z,1.80
2019-05-05T18:16:54.239Z,2.00
2019-05-05T18:19:24.866Z,1.73
2019-05-05T18:21:56.371Z,1.60
2019-05-05T18:24:27.048Z,1.83
2019-05-05T18:26:57.699Z,1.70
2019-05-05T18:29:28.643Z,1.57
2019-05-05T18:31:59.686Z,1.70
2019-05-05T18:34:30.066Z,2.00
2019-05-05T18:37:00.690Z,1.80
2019-05-05T18:39:31.256Z,2.30
2019-05-05T18:42:13.965Z,1.80
2019-05-05T18:44:46.979Z,1.80
2019-05-05T18:47:21.236Z,1.70
2019-05-05T18:49:53.826Z,2.33
2019-05-05T18:52:24.586Z,2.13
2019-05-05T18:54:55.239Z,2.43
2019-05-05T18:57:26.306Z,2.27
2019-05-05T18:59:56.904Z,2.77
2019-05-05T19:02:44.128Z,2.53
2019-05-05T19:05:44.059Z,2.70
2019-05-05T19:08:24.476Z,2.63
2019-05-05T19:10:55.972Z,2.47
2019-05-05T19:13:26.527Z,2.83
2019-05-05T19:15:57.263Z,2.77
2019-05-05T19:18:28.047Z,3.13
2019-05-05T19:21:22.367Z,2.60
2019-05-05T19:23:54.206Z,2.30
2019-05-05T19:26:24.714Z,2.40
2019-05-05T19:28:55.416Z,2.67
2019-05-05T19:31:25.955Z,2.63
2019-05-05T19:33:56.711Z,2.50
2019-05-05T19:36:28.191Z,2.70
2019-05-05T19:38:58.939Z,2.60
2019-05-05T19:41:29.435Z,2.27
2019-05-05T19:44:01.957Z,2.33
2019-05-05T19:46:41.148Z,2.33
2019-05-05T19:49:18.260Z,2.10
2019-05-05T19:51:48.995Z,2.60
2019-05-05T19:54:19.679Z,2.77
2019-05-05T19:56:50.126Z,3.00
2019-05-05T19:59:20.695Z,2.40
2019-05-05T20:01:51.327Z,3.27
2019-05-05T20:04:24.130Z,2.43
2019-05-05T20:06:55.180Z,2.60
2019-05-05T20:09:25.727Z,3.10
2019-05-05T20:11:56.421Z,2.93
2019-05-05T20:14:27.088Z,2.23
2019-05-05T20:17:05.835Z,3.00
2019-05-05T20:19:40.698Z,2.40
2019-05-05T20:22:11.307Z,2.50
2019-05-05T20:24:41.757Z,2.57
2019-05-05T20:27:13.970Z,2.80
2019-05-05T20:29:44.490Z,2.70
2019-05-05T20:32:17.266Z,2.80
2019-05-05T20:35:23.958Z,2.60
2019-05-05T20:38:01.919Z,2.53
2019-05-05T20:40:35.200Z,2.77
2019-05-05T20:43:05.731Z,2.50
2019-05-05T20:45:38.408Z,2.73
2019-05-05T20:48:08.856Z,2.87
2019-05-05T20:50:39.407Z,2.60
2019-05-05T20:53:09.868Z,2.33
2019-05-05T20:55:40.485Z,2.57
2019-05-05T20:58:11.144Z,2.30
2019-05-05T21:00:41.604Z,2.40
2019-05-05T21:03:14.049Z,2.60
2019-05-05T21:05:44.389Z,3.03
2019-05-05T21:08:15.732Z,3.20
2019-05-05T21:10:46.340Z,3.47
2019-05-05T21:13:16.820Z,3.20
2019-05-05T21:15:47.195Z,2.50
2019-05-05T21:18:17.955Z,2.23
2019-05-05T21:20:48.471Z,1.83
2019-05-05T21:23:43.829Z,1.90
2019-05-05T21:26:23.478Z,2.13
2019-05-05T21:28:53.928Z,2.33
2019-05-05T21:31:24.539Z,2.10
2019-05-05T21:33:57.902Z,2.20
2019-05-05T21:36:28.291Z,2.47
2019-05-05T21:39:00.596Z,2.87
2019-05-05T21:41:33.819Z,2.40
2019-05-05T21:44:05.535Z,2.87
2019-05-05T21:46:44.923Z,2.70
2019-05-05T21:49:15.303Z,2.93
2019-05-05T21:52:14.333Z,2.70
2019-05-05T21:54:54.563Z,2.67
2019-05-05T21:57:44.668Z,2.80
2019-05-05T22:00:39.526Z,2.57
2019-05-05T22:03:14.021Z,2.67
2019-05-05T22:05:45.446Z,2.90
2019-05-05T22:08:16.202Z,2.40
2019-05-05T22:10:46.591Z,2.27
2019-05-05T22:13:17.134Z,1.97
2019-05-05T22:15:47.507Z,1.80
2019-05-05T22:18:17.984Z,1.50
2019-05-05T22:20:54.667Z,1.97
2019-05-05T22:23:25.238Z,1.20
2019-05-05T22:25:55.767Z,1.50
2019-05-05T22:28:26.663Z,1.60
2019-05-05T22:30:59.353Z,1.20
2019-05-05T22:33:33.840Z,1.20
2019-05-05T22:36:04.398Z,1.53
2019-05-05T22:38:36.012Z,1.60
2019-05-05T22:41:06.417Z,1.47
2019-05-05T22:43:38.075Z,1.80
2019-05-05T22:46:10.928Z,1.37
2019-05-05T22:48:44.756Z,1.03
2019-05-05T22:51:15.301Z,1.13
2019-05-05T22:53:45.703Z,1.03
2019-05-05T22:56:16.299Z,0.97
2019-05-05T22:58:46.892Z,1.13
2019-05-05T23:01:17.503Z,1.07
2019-05-05T23:04:05.083Z,1.57
2019-05-05T23:06:35.753Z,1.10
2019-05-05T23:09:09.884Z,0.97
2019-05-05T23:11:40.411Z,0.73
2019-05-05T23:14:29.336Z,0.83
2019-05-05T23:17:18.540Z,0.57
2019-05-05T23:19:54.883Z,0.90
2019-05-05T23:22:34.888Z,1.00
2019-05-05T23:25:14.555Z,1.30
2019-05-05T23:27:48.367Z,1.53
2019-05-05T23:30:19.488Z,1.23
2019-05-05T23:32:50.089Z,1.50
2019-05-05T23:35:20.811Z,1.50
2019-05-05T23:37:51.407Z,1.33
2019-05-05T23:40:24.599Z,1.63
2019-05-05T23:42:55.191Z,1.50
2019-05-05T23:45:25.859Z,1.43
2019-05-05T23:47:56.639Z,1.07
2019-05-05T23:50:31.299Z,1.43
2019-05-05T23:53:04.543Z,1.43
2019-05-05T23:55:35.124Z,1.07
2019-05-05T23:58:05.691Z,1.40
